Time;durP1;ratioP1;P1;durP2;ratioP2;P2;SDS_P1;SDS_P2;PMS_P1;PMS_P2;Temp;Humidity;BMP_temperature;BMP_pressure;BME280_temperature;BME280_humidity;BME280_pressure;Samples;Min_cycle;Max_cycle;Signal;HPM_P1;HPM_P2
2022/05/12 00:00:26;;;;;;;8.82;5.70;;;;;;;15.34;73.77;100901.22;4971863;28;20030;-75
2022/05/12 00:02:52;;;;;;;7.70;5.78;;;;;;;15.08;74.14;100860.66;4975888;28;20038;-75
2022/05/12 00:05:18;;;;;;;9.15;6.20;;;;;;;15.30;74.22;100911.50;4996537;28;20029;-74
2022/05/12 00:07:44;;;;;;;11.30;6.07;;;;;;;14.99;74.62;100872.63;4997465;28;20481;-74
2022/05/12 00:13:32;;;;;;;9.43;5.60;;;;;;;14.91;76.18;100912.25;5133582;22;20181;-74
2022/05/12 00:15:58;;;;;;;8.77;5.82;;;;;;;14.82;76.50;100908.56;5017580;28;20032;-74
2022/05/12 00:18:25;;;;;;;9.73;5.57;;;;;;;14.67;76.43;100892.56;5017281;28;20030;-73
2022/05/12 00:20:51;;;;;;;8.75;5.55;;;;;;;14.67;76.84;100906.44;5017287;28;20498;-73
2022/05/12 00:23:21;;;;;;;7.45;5.78;;;;;;;14.70;76.58;100905.63;5017315;28;20045;-73
2022/05/12 00:25:49;;;;;;;8.85;5.57;;;;;;;14.76;75.75;100905.81;5017414;28;20033;-73
2022/05/12 00:28:16;;;;;;;7.90;5.90;;;;;;;14.80;75.32;100907.63;5017352;28;20435;-73
2022/05/12 00:30:44;;;;;;;9.02;6.32;;;;;;;14.85;75.46;100907.75;5017427;28;20029;-74
2022/05/12 00:33:10;;;;;;;8.77;6.47;;;;;;;14.90;75.36;100908.75;5017369;28;20034;-74
2022/05/12 00:38:10;;;;;;;15.00;6.72;;;;;;;14.88;77.66;100910.47;5034820;28;20115;-74
2022/05/12 00:40:35;;;;;;;9.07;6.38;;;;;;;14.90;78.21;100910.50;5001901;28;20038;-75
2022/05/12 00:43:08;;;;;;;9.10;6.35;;;;;;;14.75;79.49;100917.03;5037224;28;20029;-73
2022/05/12 00:45:36;;;;;;;9.25;6.93;;;;;;;14.70;80.43;100918.63;5037542;28;20029;-75
2022/05/12 00:48:04;;;;;;;9.80;6.45;;;;;;;14.33;82.57;100914.97;5037348;28;20048;-75
2022/05/12 00:50:37;;;;;;;8.43;6.38;;;;;;;14.19;82.42;100909.38;5037042;28;20466;-75
2022/05/12 00:53:05;;;;;;;9.05;6.68;;;;;;;14.03;81.59;100919.31;5037331;28;20061;-75
2022/05/12 00:55:34;;;;;;;8.65;6.43;;;;;;;13.74;82.73;100913.22;5037586;28;20443;-74
2022/05/12 00:58:05;;;;;;;8.90;6.88;;;;;;;13.52;83.79;100919.44;5037367;28;20033;-74
2022/05/12 01:00:30;;;;;;;9.43;6.22;;;;;;;13.52;84.28;100927.22;5037116;28;20112;-74
2022/05/12 01:03:00;;;;;;;9.65;6.15;;;;;;;13.55;83.91;100933.41;5037089;28;20129;-74
2022/05/12 01:05:26;;;;;;;;;;;;;;;13.42;84.01;100918.25;5037608;28;20029;-73
2022/05/12 01:07:55;;;;;;;8.43;5.90;;;;;;;13.11;85.05;100912.91;5037023;28;19983;-74
2022/05/12 01:10:21;;;;;;;11.23;7.13;;;;;;;13.00;85.58;100918.59;5037083;28;20033;-74
2022/05/12 01:12:48;;;;;;;9.30;6.10;;;;;;;12.92;85.80;100929.56;4985728;28;20271;-74
2022/05/12 01:15:17;;;;;;;7.72;5.93;;;;;;;12.84;85.65;100923.22;5035871;28;20061;-75
2022/05/12 01:17:43;;;;;;;11.93;6.90;;;;;;;12.98;85.36;100933.19;5033597;28;20456;-74
2022/05/12 01:20:10;;;;;;;9.40;6.35;;;;;;;13.04;84.80;100934.28;5033781;28;20116;-74
2022/05/12 01:22:53;;;;;;;9.60;6.45;;;;;;;13.06;84.41;100929.13;5033833;28;20476;-72
2022/05/12 01:25:21;;;;;;;10.40;6.38;;;;;;;13.05;84.29;100925.66;5033953;28;20055;-73
2022/05/12 01:27:47;;;;;;;10.65;6.10;;;;;;;13.11;83.42;100925.88;5033850;28;20025;-72
2022/05/12 01:30:16;;;;;;;10.77;6.28;;;;;;;13.01;82.93;100894.41;5033473;28;20041;-72
2022/05/12 01:32:44;;;;;;;10.05;5.88;;;;;;;13.09;82.73;100906.78;5033749;28;20132;-75
2022/05/12 01:35:10;;;;;;;9.48;6.57;;;;;;;13.09;82.46;100904.19;5015365;28;20034;-72
2022/05/12 01:37:41;;;;;;;10.20;6.40;;;;;;;13.25;82.19;100917.69;4971615;28;20047;-73
2022/05/12 01:40:08;;;;;;;9.80;6.53;;;;;;;13.14;81.85;100911.28;4946940;28;20046;-75
2022/05/12 01:42:34;;;;;;;9.95;6.55;;;;;;;13.28;82.04;100915.19;4971835;28;20042;-71
2022/05/12 01:44:59;;;;;;;7.63;6.15;;;;;;;13.32;81.25;100917.06;4971942;28;20041;-74
2022/05/12 01:47:24;;;;;;;10.65;5.70;;;;;;;13.39;80.32;100919.03;4971838;28;20081;-71
2022/05/12 01:49:50;;;;;;;10.20;6.28;;;;;;;13.47;80.42;100941.75;4971818;28;20038;-75
2022/05/12 01:52:16;;;;;;;10.38;5.93;;;;;;;13.35;80.84;100927.53;4968753;28;20122;-74
2022/05/12 01:54:42;;;;;;;8.63;6.30;;;;;;;13.33;81.02;100936.97;4963267;28;20039;-76
2022/05/12 01:57:07;;;;;;;9.23;5.82;;;;;;;13.38;81.12;100934.56;4939048;28;20497;-74
2022/05/12 01:59:34;;;;;;;11.13;5.82;;;;;;;13.59;80.95;100945.66;4971017;28;20496;-74
2022/05/12 02:01:59;;;;;;;11.48;6.70;;;;;;;13.54;80.85;100947.19;4956503;28;20050;-74
2022/05/12 02:04:25;;;;;;;9.60;6.15;;;;;;;13.46;81.11;100940.00;4951683;29;20411;-74
2022/05/12 02:06:50;;;;;;;9.50;6.68;;;;;;;13.38;82.25;100950.13;4951802;29;20122;-74
2022/05/12 02:09:16;;;;;;;9.65;6.30;;;;;;;13.25;83.79;100947.09;4951555;29;20529;-74
2022/05/12 02:11:43;;;;;;;10.70;6.50;;;;;;;13.20;84.50;100958.16;4951708;29;20031;-74
2022/05/12 02:14:09;;;;;;;7.95;6.63;;;;;;;13.14;86.40;100951.03;4957072;28;20039;-73
2022/05/12 02:16:35;;;;;;;7.97;6.38;;;;;;;12.92;88.06;100946.81;4992961;28;20113;-75
2022/05/12 02:19:06;;;;;;;9.75;6.45;;;;;;;12.56;89.23;100935.19;4992799;28;20030;-74
2022/05/12 02:21:32;;;;;;;8.65;6.72;;;;;;;12.62;89.62;100961.31;4992844;28;20041;-74
2022/05/12 02:24:01;;;;;;;9.23;7.30;;;;;;;12.32;90.54;100936.88;4992759;28;20153;-74
2022/05/12 02:26:28;;;;;;;9.13;7.03;;;;;;;12.23;91.75;100938.28;4992717;28;20113;-74
2022/05/12 02:28:53;;;;;;;9.82;6.95;;;;;;;12.28;92.81;100960.06;4975146;28;20464;-71
2022/05/12 02:31:19;;;;;;;13.30;6.85;;;;;;;12.30;92.81;100955.81;4992596;28;20036;-73
2022/05/12 02:33:44;;;;;;;10.63;6.80;;;;;;;12.43;92.71;100961.47;4992809;28;20113;-73
2022/05/12 02:36:10;;;;;;;9.23;6.63;;;;;;;12.44;92.54;100966.69;4992362;28;20069;-74
2022/05/12 02:38:36;;;;;;;10.52;6.82;;;;;;;12.55;93.29;100968.81;4992246;28;20030;-74
2022/05/12 02:41:01;;;;;;;8.40;6.53;;;;;;;12.55;94.29;100972.28;4992364;28;20026;-75
2022/05/12 02:43:29;;;;;;;10.82;7.20;;;;;;;12.47;94.22;100947.78;4992291;28;20030;-75
2022/05/12 02:46:02;;;;;;;9.27;6.60;;;;;;;12.67;93.17;100970.97;4992168;28;20473;-78
2022/05/12 02:48:33;;;;;;;12.02;7.20;;;;;;;12.69;92.21;100941.69;4992447;28;20038;-74
2022/05/12 02:50:59;;;;;;;12.48;6.05;;;;;;;12.82;90.28;100962.88;4992172;28;20415;-75
2022/05/12 02:53:26;;;;;;;8.77;6.70;;;;;;;12.52;90.83;100947.97;4991900;28;20113;-73
2022/05/12 02:55:52;;;;;;;9.73;6.63;;;;;;;12.38;92.12;100937.97;4992174;28;20026;-77
2022/05/12 02:58:17;;;;;;;8.52;6.53;;;;;;;12.54;92.19;100974.81;4992233;28;20101;-74
2022/05/12 03:00:44;;;;;;;8.15;6.70;;;;;;;12.42;92.24;100967.47;4992093;28;20053;-72
2022/05/12 03:03:10;;;;;;;18.23;6.72;;;;;;;12.49;90.08;100981.53;4992135;28;20050;-76
2022/05/12 03:05:37;;;;;;;12.38;6.13;;;;;;;12.47;88.84;100976.28;4991710;28;20029;-72
2022/05/12 03:08:03;;;;;;;16.17;6.38;;;;;;;12.37;87.96;100971.59;4991869;28;20128;-75
2022/05/12 03:10:31;;;;;;;9.73;6.20;;;;;;;12.41;87.78;100996.78;4973730;28;20095;-75
2022/05/12 03:12:57;;;;;;;11.90;7.38;;;;;;;12.42;87.31;100993.38;4991987;28;20033;-72
2022/05/12 03:15:23;;;;;;;14.85;6.38;;;;;;;12.44;86.77;100987.41;4991710;28;20022;-75
2022/05/12 03:17:49;;;;;;;17.08;6.80;;;;;;;12.43;86.07;100983.06;4991690;28;20393;-72
2022/05/12 03:20:22;;;;;;;25.77;6.88;;;;;;;12.21;84.56;100928.72;4990460;28;20030;-74
2022/05/12 03:22:48;;;;;;;17.17;6.97;;;;;;;12.50;84.53;101001.41;4991718;28;20161;-74
2022/05/12 03:25:17;;;;;;;15.48;6.93;;;;;;;12.19;85.66;101006.31;4999719;28;20057;-75
2022/05/12 03:27:43;;;;;;;16.20;6.88;;;;;;;12.09;86.62;101001.59;5011116;28;20041;-75
2022/05/12 03:30:12;;;;;;;14.10;6.57;;;;;;;11.89;86.73;100957.69;5011292;28;20042;-75
2022/05/12 03:32:38;;;;;;;12.15;7.18;;;;;;;11.71;86.27;100925.91;5011336;28;20084;-73
2022/05/12 03:35:04;;;;;;;12.30;6.32;;;;;;;12.26;86.20;101008.31;5011255;28;20033;-74
2022/05/12 03:37:31;;;;;;;13.63;6.65;;;;;;;12.32;86.13;101001.59;5010998;28;20052;-74
2022/05/12 03:39:56;;;;;;;9.98;6.68;;;;;;;12.35;86.20;100992.25;5010327;28;20057;-74
2022/05/12 03:42:21;;;;;;;11.25;6.63;;;;;;;12.41;85.81;100984.72;5010733;28;20033;-74
2022/05/12 03:44:47;;;;;;;11.77;6.50;;;;;;;12.58;85.31;101003.47;5006430;28;20483;-74
2022/05/12 03:47:20;;;;;;;12.23;6.43;;;;;;;12.59;85.32;100991.41;5010547;28;20052;-71
2022/05/12 03:49:50;;;;;;;9.65;6.43;;;;;;;12.81;84.45;101010.31;5010667;28;20036;-74
2022/05/12 03:52:17;;;;;;;11.10;6.75;;;;;;;12.88;83.82;101001.94;5010784;28;20029;-74
2022/05/12 03:54:43;;;;;;;11.00;7.25;;;;;;;12.97;83.24;101007.44;5010950;28;20033;-74
2022/05/12 03:57:09;;;;;;;16.45;7.30;;;;;;;13.09;83.12;101009.63;5010715;28;20451;-74
2022/05/12 03:59:38;;;;;;;14.55;7.80;;;;;;;13.18;83.03;101014.25;5010750;28;20041;-74
2022/05/12 04:02:04;;;;;;;16.00;8.27;;;;;;;13.09;82.69;100981.09;5010163;28;20037;-73
2022/05/12 04:04:30;;;;;;;13.25;7.78;;;;;;;13.37;82.41;101019.28;5010795;28;20030;-75
2022/05/12 04:06:55;;;;;;;17.27;7.47;;;;;;;13.35;83.09;101014.84;5008947;28;20037;-73
2022/05/12 04:09:21;;;;;;;14.65;8.60;;;;;;;13.29;83.47;101018.09;5010723;28;20463;-72
2022/05/12 04:11:46;;;;;;;13.10;8.07;;;;;;;13.29;84.71;101018.09;5010671;28;20450;-74
2022/05/12 04:14:11;;;;;;;14.63;8.93;;;;;;;13.22;85.53;101016.09;5010751;28;20108;-74
2022/05/12 04:16:38;;;;;;;13.40;7.95;;;;;;;13.20;86.42;101017.78;5010474;28;20439;-74
2022/05/12 04:19:06;;;;;;;13.00;8.68;;;;;;;13.18;86.92;101016.81;5010530;28;20033;-75
2022/05/12 04:21:37;;;;;;;22.67;8.75;;;;;;;12.98;87.19;100974.66;5010219;28;20450;-73
2022/05/12 04:24:04;;;;;;;16.30;8.02;;;;;;;13.30;86.65;101014.66;5010529;28;20476;-71
2022/05/12 04:26:29;;;;;;;13.13;8.25;;;;;;;13.27;87.12;100999.88;4992862;28;20115;-74
2022/05/12 04:28:55;;;;;;;11.90;8.30;;;;;;;13.43;86.64;101031.56;5010573;28;20174;-75
2022/05/12 04:31:20;;;;;;;12.27;8.57;;;;;;;13.15;88.06;101001.19;4975317;28;20041;-73
2022/05/12 04:36:29;;;;;;;14.05;8.50;;;;;;;13.14;91.24;101038.31;5009565;28;20061;-72
2022/05/12 04:38:55;;;;;;;11.68;8.30;;;;;;;13.08;92.52;101033.75;4992699;28;20049;-73
2022/05/12 04:41:21;;;;;;;10.63;8.30;;;;;;;13.11;92.53;101033.88;5005218;28;20089;-73
2022/05/12 04:43:46;;;;;;;14.10;9.32;;;;;;;13.11;90.96;101045.13;5004561;28;20109;-71
2022/05/12 04:46:12;;;;;;;14.15;8.88;;;;;;;13.02;90.89;101034.44;5009262;28;20076;-72
2022/05/12 04:48:38;;;;;;;13.02;8.18;;;;;;;12.81;91.35;101015.50;5009678;28;20037;-72
2022/05/12 04:51:04;;;;;;;12.30;8.32;;;;;;;12.84;92.84;101044.13;5010682;28;20033;-72
2022/05/12 04:53:30;;;;;;;13.48;8.13;;;;;;;12.83;93.06;101032.00;5013933;28;20489;-72
2022/05/12 04:55:56;;;;;;;15.00;9.40;;;;;;;12.89;92.70;101035.69;5013522;28;20060;-74
2022/05/12 04:58:22;;;;;;;11.05;8.23;;;;;;;12.95;92.86;101040.22;5013643;28;20066;-73
2022/05/12 05:00:48;;;;;;;13.93;8.30;;;;;;;13.09;93.17;101025.16;5013671;28;20117;-73
2022/05/12 05:03:14;;;;;;;15.35;9.18;;;;;;;13.31;92.82;101041.47;5013798;28;20091;-73
2022/05/12 05:05:40;;;;;;;13.90;8.85;;;;;;;13.31;92.68;101037.19;5013841;28;20416;-72
2022/05/12 05:08:06;;;;;;;12.75;8.88;;;;;;;13.20;91.99;101010.88;5013557;28;20088;-72
2022/05/12 05:10:32;;;;;;;21.27;10.57;;;;;;;13.36;92.66;101030.44;5012436;28;20507;-72
2022/05/12 05:12:59;;;;;;;15.52;9.45;;;;;;;13.51;92.48;101039.63;5013430;28;20083;-72
2022/05/12 05:15:25;;;;;;;12.75;9.27;;;;;;;13.61;91.90;101046.88;5013674;28;20042;-72
2022/05/12 05:17:51;;;;;;;13.60;8.65;;;;;;;13.53;92.58;101030.16;5010795;28;20069;-72
2022/05/12 05:20:23;;;;;;;12.45;9.25;;;;;;;13.70;92.71;101041.13;5002552;28;20037;-72
2022/05/12 05:22:49;;;;;;;11.88;8.57;;;;;;;13.77;91.36;101045.69;5005130;28;20042;-72
2022/05/12 05:25:15;;;;;;;14.13;9.27;;;;;;;13.85;92.28;101028.63;4993242;28;20037;-74
2022/05/12 05:27:41;;;;;;;15.25;9.68;;;;;;;13.99;90.96;101043.78;4993643;28;20117;-72
2022/05/12 05:30:10;;;;;;;14.93;9.63;;;;;;;14.11;89.18;101051.09;4993666;28;20150;-72
2022/05/12 05:32:36;;;;;;;15.40;8.52;;;;;;;14.17;89.23;101033.09;4993769;28;20042;-72
2022/05/12 05:35:01;;;;;;;14.68;8.32;;;;;;;14.39;87.23;101052.81;4993391;28;20041;-74
2022/05/12 05:37:27;;;;;;;10.40;7.72;;;;;;;14.53;86.73;101048.06;4993295;28;20065;-73
2022/05/12 05:39:52;;;;;;;11.27;8.32;;;;;;;14.74;85.12;101059.94;4993150;28;20081;-72
2022/05/12 05:42:20;;;;;;;10.88;7.97;;;;;;;14.81;84.46;101049.75;4993411;28;20026;-74
2022/05/12 05:44:46;;;;;;;14.07;8.18;;;;;;;14.92;84.25;101057.88;5009235;28;20037;-72
2022/05/12 05:47:11;;;;;;;13.00;7.50;;;;;;;14.97;82.42;101050.22;4977642;28;20057;-74
2022/05/12 05:49:37;;;;;;;10.30;6.85;;;;;;;15.12;80.85;101052.38;5012429;28;20033;-72
2022/05/12 05:54:48;;;;;;;10.13;6.75;;;;;;;15.34;76.90;101054.72;5012673;28;20037;-72
2022/05/12 05:57:14;;;;;;;12.48;7.40;;;;;;;15.49;77.36;101040.34;5012746;28;20611;-72
2022/05/12 05:59:39;;;;;;;17.88;7.50;;;;;;;15.75;73.80;101058.34;5012213;28;20113;-72
2022/05/12 06:02:06;;;;;;;12.80;6.43;;;;;;;15.82;73.39;101049.88;5012187;28;20057;-73
2022/05/12 06:04:31;;;;;;;12.60;6.13;;;;;;;15.94;72.90;101051.91;5012500;28;20030;-72
2022/05/12 06:06:57;;;;;;;10.48;6.43;;;;;;;16.15;74.93;101054.16;5010410;28;20120;-72
2022/05/12 06:09:23;;;;;;;11.20;6.60;;;;;;;16.38;72.11;101062.47;5012579;28;20033;-72
2022/05/12 06:11:49;;;;;;;12.70;6.72;;;;;;;16.38;72.08;101052.06;5012166;28;20026;-72
2022/05/12 06:14:15;;;;;;;9.93;6.97;;;;;;;16.39;70.95;101052.94;5012323;28;20041;-72
2022/05/12 06:16:40;;;;;;;11.50;7.93;;;;;;;16.39;72.55;101040.78;5012248;28;20034;-73
2022/05/12 06:19:06;;;;;;;10.57;6.78;;;;;;;16.59;71.69;101056.00;5012156;28;20032;-73
2022/05/12 06:21:35;;;;;;;15.02;6.70;;;;;;;16.44;71.72;101025.25;5012154;28;20074;-73
2022/05/12 06:24:01;;;;;;;12.73;7.07;;;;;;;16.64;72.12;101051.75;4990226;28;20042;-72
2022/05/12 06:26:26;;;;;;;9.98;6.38;;;;;;;16.69;72.17;101051.84;4990069;28;20274;-73
2022/05/12 06:28:52;;;;;;;13.65;7.00;;;;;;;16.85;72.24;101056.53;4992722;28;20087;-72
2022/05/12 06:31:24;;;;;;;8.80;6.75;;;;;;;16.95;72.32;101050.69;4992676;28;20085;-73
2022/05/12 06:33:53;;;;;;;14.02;7.00;;;;;;;17.13;71.33;101060.63;4992331;28;20080;-72
2022/05/12 06:36:19;;;;;;;9.82;6.93;;;;;;;17.13;72.04;101054.50;4992450;28;20125;-72
2022/05/12 06:38:44;;;;;;;11.15;6.90;;;;;;;17.28;72.96;101049.59;4992164;28;20117;-72
2022/05/12 06:41:10;;;;;;;20.90;8.25;;;;;;;17.46;71.35;101053.38;4997189;28;20100;-72
2022/05/12 06:43:36;;;;;;;14.40;7.43;;;;;;;17.40;71.32;101042.84;4993273;28;20113;-72
2022/05/12 06:46:03;;;;;;;10.88;7.30;;;;;;;17.34;71.52;101050.56;5009920;28;20064;-72
2022/05/12 06:48:29;;;;;;;12.75;7.22;;;;;;;17.44;72.31;101039.41;5011041;28;20014;-72
2022/05/12 06:50:54;;;;;;;9.93;6.90;;;;;;;17.58;71.75;101045.78;5008883;28;20036;-72
2022/05/12 06:53:20;;;;;;;10.55;7.18;;;;;;;17.52;70.44;101010.84;5009712;28;20032;-72
2022/05/12 06:55:45;;;;;;;12.88;6.95;;;;;;;17.82;69.97;101049.66;5011346;28;20480;-72
2022/05/12 06:58:14;;;;;;;9.52;6.80;;;;;;;17.83;69.36;101033.13;5011160;28;20391;-72
2022/05/12 07:00:40;;;;;;;8.80;7.18;;;;;;;17.89;71.03;101038.44;5008782;28;20057;-72
2022/05/12 07:03:06;;;;;;;14.90;6.97;;;;;;;18.03;70.70;101038.69;5010787;28;20030;-72
2022/05/12 07:05:32;;;;;;;12.23;6.80;;;;;;;18.00;70.01;101041.25;5010979;28;20073;-73
2022/05/12 07:07:58;;;;;;;10.35;6.28;;;;;;;18.04;70.19;101023.88;5008192;28;20460;-72
2022/05/12 07:10:25;;;;;;;12.10;6.63;;;;;;;18.20;70.29;101020.63;5010512;28;20391;-72
2022/05/12 07:12:51;;;;;;;10.77;6.20;;;;;;;18.00;71.20;101009.03;5007725;28;20527;-72
2022/05/12 07:15:17;;;;;;;11.57;7.00;;;;;;;18.14;71.14;101017.94;4992144;28;20452;-72
2022/05/12 07:17:44;;;;;;;10.70;6.63;;;;;;;18.42;70.50;101037.50;5010481;28;20118;-73
2022/05/12 07:28:27;;;;;;;9.90;6.63;;;;;;;19.09;68.83;101022.66;5005743;28;20184;-73
2022/05/12 07:31:02;;;;;;;11.18;6.93;;;;;;;19.18;68.21;101011.41;5008818;28;20428;-73
2022/05/12 07:33:32;;;;;;;10.27;5.97;;;;;;;19.25;68.34;101010.59;5010365;28;20044;-73
2022/05/12 07:36:04;;;;;;;10.98;5.70;;;;;;;19.23;67.13;100988.78;5010125;28;20109;-73
2022/05/12 07:38:30;;;;;;;8.48;5.88;;;;;;;19.62;67.63;101028.41;5008184;28;20041;-72
2022/05/12 07:40:55;;;;;;;8.88;6.55;;;;;;;19.61;67.72;101024.88;5009963;28;20480;-73
2022/05/12 07:43:22;;;;;;;12.50;6.53;;;;;;;19.60;68.60;101025.78;5009671;28;20474;-73
2022/05/12 07:45:48;;;;;;;10.27;6.20;;;;;;;19.56;69.26;101019.63;4964396;28;20038;-73
2022/05/12 07:48:14;;;;;;;9.90;6.53;;;;;;;19.66;69.98;101017.94;4991480;28;20038;-73
2022/05/12 07:50:40;;;;;;;8.95;6.40;;;;;;;19.91;69.79;101019.94;5009683;28;20030;-72
2022/05/12 07:53:07;;;;;;;9.65;6.43;;;;;;;19.87;68.27;100992.81;5009512;28;20037;-72
2022/05/12 07:55:33;;;;;;;7.60;5.93;;;;;;;20.32;66.35;101024.56;4969080;28;20455;-73
2022/05/12 07:58:03;;;;;;;12.63;6.25;;;;;;;20.33;64.42;101007.97;5009680;28;20033;-73
2022/05/12 08:00:30;;;;;;;10.95;6.35;;;;;;;20.47;64.66;101022.03;5006695;28;20395;-73
2022/05/12 08:02:56;;;;;;;10.07;6.30;;;;;;;20.62;64.29;101028.19;5009429;28;20032;-73
2022/05/12 08:05:22;;;;;;;9.00;6.65;;;;;;;20.59;64.72;101015.94;5009634;28;20030;-73
2022/05/12 08:07:48;;;;;;;9.85;6.70;;;;;;;20.65;65.62;101010.72;5009862;28;20037;-73
2022/05/12 08:10:14;;;;;;;7.53;5.40;;;;;;;20.79;67.86;101021.31;5010143;28;20025;-72
2022/05/12 08:12:40;;;;;;;9.85;5.82;;;;;;;21.01;64.71;101019.63;5007767;28;20034;-73
2022/05/12 08:15:06;;;;;;;8.60;5.63;;;;;;;21.12;64.69;101013.50;5010092;28;20049;-73
2022/05/12 08:17:31;;;;;;;7.32;6.20;;;;;;;21.08;64.60;100996.88;5010176;28;20030;-73
2022/05/12 08:19:57;;;;;;;11.32;6.20;;;;;;;20.89;64.04;100980.22;5010084;28;20036;-73
2022/05/12 08:22:24;;;;;;;9.43;6.07;;;;;;;21.14;64.69;101012.63;5009674;28;20069;-73
2022/05/12 08:24:50;;;;;;;10.32;6.20;;;;;;;21.30;64.51;101015.31;4988411;28;20051;-72
2022/05/12 08:27:16;;;;;;;8.85;5.85;;;;;;;21.11;63.72;100980.25;5012762;28;20463;-72
2022/05/12 08:29:41;;;;;;;10.55;6.50;;;;;;;21.44;63.83;101007.44;5013595;28;20057;-73
2022/05/12 08:32:07;;;;;;;10.98;6.07;;;;;;;21.58;62.43;101004.84;5011352;28;20032;-73
2022/05/12 08:34:33;;;;;;;7.75;5.60;;;;;;;21.58;61.39;101005.75;5011574;28;20030;-75
2022/05/12 08:36:59;;;;;;;9.90;5.97;;;;;;;21.73;61.95;101010.13;5013166;28;20385;-73
2022/05/12 08:39:24;;;;;;;8.82;5.07;;;;;;;21.83;62.65;100999.56;4996086;28;20076;-73
2022/05/12 08:41:57;;;;;;;8.68;5.25;;;;;;;21.98;62.73;100995.19;5013676;28;20030;-73
2022/05/12 08:44:23;;;;;;;7.68;4.28;;;;;;;22.13;57.02;100991.63;5011460;28;20033;-73
2022/05/12 08:47:12;;;;;;;6.60;5.25;;;;;;;22.27;60.15;100985.47;5013537;28;20037;-73
2022/05/12 08:49:50;;;;;;;;;;;;;;;22.52;57.27;100988.00;5013708;28;20025;-73
2022/05/12 08:52:39;;;;;;;8.23;5.38;;;;;;;22.60;54.17;100989.75;5013247;28;20354;-73
2022/05/12 08:55:17;;;;;;;8.27;5.27;;;;;;;22.45;56.54;100953.88;5012144;28;20061;-73
2022/05/12 08:57:51;;;;;;;7.20;4.43;;;;;;;22.70;52.78;100953.72;5011999;28;20318;-73
2022/05/12 09:00:18;;;;;;;10.20;4.72;;;;;;;23.02;50.89;100986.88;5011181;28;20022;-73
2022/05/12 09:03:07;;;;;;;8.38;4.97;;;;;;;23.15;50.53;100989.44;5013223;28;20024;-73
2022/05/12 09:05:40;;;;;;;6.95;5.00;;;;;;;23.31;51.40;100977.94;5012423;28;20037;-73
2022/05/12 09:08:43;;;;;;;7.68;4.50;;;;;;;23.45;50.35;100982.22;5012761;28;20395;-73
2022/05/12 09:11:27;;;;;;;8.25;4.72;;;;;;;23.52;51.27;100979.53;5012173;28;20385;-73
2022/05/12 09:13:54;;;;;;;8.02;4.60;;;;;;;23.67;49.64;100975.00;5003014;28;20117;-73
2022/05/12 09:16:32;;;;;;;6.15;4.20;;;;;;;23.86;49.81;100979.22;5013038;28;20025;-73
2022/05/12 09:18:59;;;;;;;6.68;4.70;;;;;;;23.79;50.51;100956.44;5008086;28;20535;-73
2022/05/12 09:21:31;;;;;;;6.32;4.22;;;;;;;24.08;49.71;100980.78;5011490;28;20504;-72
2022/05/12 09:23:57;;;;;;;6.85;4.53;;;;;;;24.29;47.51;100983.19;5011574;28;20522;-73
2022/05/12 09:26:38;;;;;;;7.05;4.40;;;;;;;24.25;47.35;100975.31;5012968;28;20042;-73
2022/05/12 09:29:18;;;;;;;10.50;5.20;;;;;;;24.35;46.70;100976.94;5011592;28;20392;-73
2022/05/12 09:31:48;;;;;;;10.57;4.13;;;;;;;24.46;44.31;100976.81;5011946;28;20132;-73
2022/05/12 09:34:21;;;;;;;6.03;3.75;;;;;;;24.46;44.33;100968.91;5010331;28;20369;-73
2022/05/12 09:36:46;;;;;;;11.52;4.47;;;;;;;24.44;43.49;100961.00;5011765;28;20041;-73
2022/05/12 09:39:31;;;;;;;6.95;3.80;;;;;;;24.45;44.72;100944.28;5010166;28;20391;-73
2022/05/12 09:41:57;;;;;;;6.00;3.40;;;;;;;24.46;43.43;100966.25;5010994;28;20030;-73
2022/05/12 09:44:29;;;;;;;7.57;3.58;;;;;;;24.66;41.55;100961.63;5012435;28;20029;-73
2022/05/12 09:47:02;;;;;;;4.20;2.85;;;;;;;24.69;43.72;100966.00;5010223;28;20037;-73
2022/05/12 09:49:38;;;;;;;6.10;3.50;;;;;;;24.80;41.26;100956.16;5012249;28;20034;-73
2022/05/12 09:52:32;;;;;;;5.78;3.40;;;;;;;24.97;44.77;100962.94;5012623;28;20080;-73
2022/05/12 09:55:14;;;;;;;8.18;4.00;;;;;;;25.06;46.02;100944.34;5010388;28;20515;-73
2022/05/12 09:58:04;;;;;;;6.32;4.30;;;;;;;25.29;45.92;100949.22;5010361;28;20582;-73
2022/05/12 10:00:38;;;;;;;6.93;3.78;;;;;;;25.44;43.89;100949.91;5011652;28;20034;-73
2022/05/12 10:09:28;;;;;;;5.10;3.35;;;;;;;25.11;40.07;100913.44;5011042;28;20092;-72
2022/05/12 10:12:02;;;;;;;6.22;3.47;;;;;;;25.57;40.76;100946.16;5008260;28;20030;-72
2022/05/12 10:14:33;;;;;;;4.47;3.40;;;;;;;25.67;41.77;100949.47;5011290;28;20053;-73
2022/05/12 10:17:02;;;;;;;6.20;3.20;;;;;;;25.50;42.47;100907.50;5010070;28;20415;-73
2022/05/12 10:19:29;;;;;;;6.60;3.60;;;;;;;25.85;40.54;100932.41;4966553;28;20050;-70
2022/05/12 10:22:18;;;;;;;5.75;3.95;;;;;;;25.57;41.63;100917.06;5010995;28;20431;-73
2022/05/12 10:25:06;;;;;;;6.22;3.65;;;;;;;25.72;41.13;100910.63;5009898;28;20068;-72
2022/05/12 10:28:02;;;;;;;6.18;3.63;;;;;;;26.28;39.63;100931.59;4931138;29;20035;-73
2022/05/12 10:30:48;;;;;;;7.07;3.97;;;;;;;26.46;42.75;100927.66;4873441;29;20048;-69
2022/05/12 10:33:28;;;;;;;8.77;3.97;;;;;;;26.51;43.87;100916.97;4874105;29;20049;-70
2022/05/12 10:36:19;;;;;;;6.35;3.47;;;;;;;26.74;43.86;100921.78;4873623;29;20060;-70
2022/05/12 10:39:07;;;;;;;6.55;4.13;;;;;;;26.95;39.54;100922.16;4874142;29;21525;-71
2022/05/12 10:41:38;;;;;;;8.07;4.07;;;;;;;26.83;37.86;100915.41;4874411;29;20049;-72
2022/05/12 10:44:42;;;;;;;5.15;3.38;;;;;;;26.80;38.56;100918.09;4873413;29;20274;-74
2022/05/12 10:47:29;;;;;;;7.10;3.40;;;;;;;26.74;38.19;100912.94;4874990;29;20033;-73
2022/05/12 10:50:32;;;;;;;5.97;3.72;;;;;;;26.92;38.29;100916.97;4870898;29;20049;-73
2022/05/12 10:53:11;;;;;;;5.22;3.40;;;;;;;27.02;35.69;100917.63;4871031;29;20049;-74
2022/05/12 10:55:44;;;;;;;5.47;3.72;;;;;;;27.13;36.11;100904.97;4875517;29;20037;-74
2022/05/12 10:58:22;;;;;;;6.00;3.45;;;;;;;26.90;35.56;100903.72;4893644;29;20515;-73
2022/05/12 11:00:56;;;;;;;5.05;3.15;;;;;;;27.12;35.48;100901.41;4878615;29;20089;-74
2022/05/12 11:03:27;;;;;;;6.68;3.25;;;;;;;26.99;36.42;100872.63;4884062;29;20073;-76
2022/05/12 11:05:59;;;;;;;6.05;3.42;;;;;;;27.23;35.54;100898.50;4938865;29;20031;-74
2022/05/12 11:08:31;;;;;;;6.05;3.25;;;;;;;27.27;35.10;100904.59;5007025;28;20401;-72
2022/05/12 11:11:02;;;;;;;5.03;3.17;;;;;;;26.95;34.85;100901.88;5004762;28;20037;-73
2022/05/12 11:13:37;;;;;;;4.95;3.13;;;;;;;26.94;34.17;100876.28;5012313;28;20101;-73
2022/05/12 11:16:18;;;;;;;4.32;2.97;;;;;;;27.26;35.17;100887.81;5011288;28;20493;-73
2022/05/12 11:19:01;;;;;;;6.22;2.90;;;;;;;27.39;33.47;100890.16;5011439;28;20022;-73
2022/05/12 11:21:29;;;;;;;6.60;3.13;;;;;;;27.69;32.98;100877.88;5015566;28;20030;-74
2022/05/12 11:24:04;;;;;;;4.80;2.63;;;;;;;27.95;32.99;100881.56;5021108;28;20032;-75
2022/05/12 11:27:05;;;;;;;6.07;3.20;;;;;;;28.18;31.14;100874.75;5016546;28;20462;-75
2022/05/12 11:29:51;;;;;;;4.72;2.70;;;;;;;28.35;32.40;100876.88;4912762;29;20036;-74
2022/05/12 11:32:41;;;;;;;5.03;2.78;;;;;;;28.27;31.14;100871.81;4909371;29;20064;-76
2022/05/12 11:35:17;;;;;;;5.32;3.05;;;;;;;27.72;32.32;100853.06;4910189;29;20045;-75
2022/05/12 11:37:42;;;;;;;5.50;2.75;;;;;;;28.13;31.40;100872.22;4909890;29;20051;-75
2022/05/12 11:40:13;;;;;;;4.93;2.40;;;;;;;28.22;30.71;100868.44;4908954;29;20636;-73
2022/05/12 11:45:49;;;;;;;7.25;2.70;;;;;;;28.19;31.61;100863.22;4910568;29;20108;-74
2022/05/12 11:48:26;;;;;;;3.85;2.80;;;;;;;28.31;31.57;100856.66;4909796;29;20141;-73
2022/05/12 11:50:57;;;;;;;5.28;2.88;;;;;;;28.13;30.85;100856.31;4909650;29;20036;-74
2022/05/12 11:53:33;;;;;;;5.32;2.60;;;;;;;28.35;31.17;100840.59;4913161;29;20056;-74
2022/05/12 11:56:05;;;;;;;4.63;3.00;;;;;;;28.15;34.22;100805.81;4908010;29;20156;-75
2022/05/12 11:58:41;;;;;;;3.53;2.67;;;;;;;28.03;30.78;100838.88;4910506;29;20032;-75
2022/05/12 12:01:39;;;;;;;6.22;2.40;;;;;;;27.79;31.21;100846.66;4910019;29;20153;-70